Flight Track Log - Related Links

Times and Time Zones

All times are in EST time to prevent confusion due to time zone crossing. See the CSN6869 flight status page for this flight to view local times or setup timezone preferences in your user account.

Time Position Orientation Groundspeed Altitude Reporting Facility
EST Latitude Longitude Course Direction KTS MPH feet Rate Location/Type
Tue 07:49:00 AM 42.7965 84.2320 246° West  Level Estimated
Tue 07:50:00 AM 42.7520 84.1097 244° Southwest  Level Estimated
Tue 07:51:00 AM 42.7074 83.9875 244° Southwest  Level Estimated
Tue 07:52:00 AM 42.6626 83.8656 244° Southwest  Level Estimated
Tue 07:53:00 AM 42.6177 83.7438 243° Southwest  Level Estimated
Tue 07:54:00 AM 42.5726 83.6221 243° Southwest  Level Estimated
Tue 07:55:00 AM 42.5275 83.5007 243° Southwest  Level Estimated
Tue 07:56:00 AM 42.4822 83.3794 243° Southwest  Level Estimated
Tue 07:57:00 AM 42.4368 83.2583 243° Southwest  Level Estimated
Tue 07:58:00 AM 42.3912 83.1374 243° Southwest  Level Estimated
Tue 07:59:00 AM 42.3455 83.0166 243° Southwest  Level Estimated
Tue 08:00:00 AM 42.2997 82.8961 243° Southwest  Level Estimated
Tue 08:01:00 AM 42.2538 82.7757 243° Southwest  Level Estimated
Tue 08:02:00 AM 42.2078 82.6554 243° Southwest  Level Estimated
Tue 08:03:00 AM 42.1616 82.5354 243° Southwest  Level Estimated
Tue 08:04:00 AM 42.1153 82.4155 243° Southwest  Level Estimated
Tue 08:05:00 AM 42.0689 82.2959 242° Southwest  Level Estimated
Tue 08:06:00 AM 42.0223 82.1763 242° Southwest  Level Estimated
Tue 08:07:00 AM 41.9756 82.0570 242° Southwest  Level Estimated
Tue 08:08:00 AM 41.9288 81.9378 242° Southwest  Level Estimated
Tue 08:09:00 AM 41.8819 81.8188 242° Southwest  Level Estimated
Tue 08:10:00 AM 41.8349 81.7000 242° Southwest  Level Estimated
Tue 08:11:00 AM 41.7877 81.5814 242° Southwest  Level Estimated
Tue 08:12:00 AM 41.7404 81.4629 242° Southwest  Level Estimated
Tue 08:13:00 AM 41.6930 81.3446 242° Southwest  Level Estimated
Tue 08:14:00 AM 41.6455 81.2265 242° Southwest  Level Estimated
Tue 08:15:00 AM 41.5978 81.1085 242° Southwest  Level Estimated
Tue 08:16:00 AM 41.5500 80.9908 242° Southwest  Level Estimated
Tue 08:17:00 AM 41.5021 80.8732 241° Southwest  Level Estimated
Tue 08:18:00 AM 41.4541 80.7557 241° Southwest  Level Estimated
Tue 08:19:00 AM 41.4060 80.6385 241° Southwest  Level Estimated
Tue 08:20:00 AM 41.3577 80.5214 241° Southwest  Level Estimated
Tue 08:21:00 AM 41.3094 80.4045 241° Southwest  Level Estimated
Tue 08:22:00 AM 41.2625 80.2917 241° Southwest  Level Estimated
Tue 08:23:00 AM 41.2625 80.2917 270° West  Level Estimated
Tue 08:24:00 AM 41.2625 80.2917 270° West  Level Estimated
Tue 08:25:00 AM 41.2625 80.2917 270° West  Level Estimated
Tue 08:26:00 AM 41.2625 80.2917 270° West  Level Estimated
Tue 08:27:00 AM 41.2625 80.2917 270° West  Level Estimated
Tue 08:28:00 AM 41.2625 80.2917 270° West  Level Estimated
Tue 08:29:00 AM 41.2625 80.2917 270° West  Level Estimated
Tue 08:30:00 AM 41.2625 80.2917 270° West  Level Estimated
Tue 08:31:00 AM 41.2625 80.2917 270° West  Level Estimated

Login

Don't have an account? Register now (free) for customized features, flight alerts, and more!